createdAt,value
2023-02-22T00:03:28.177Z,96855.28
2023-02-22T00:08:32.215Z,96849.13
2023-02-22T00:13:34.545Z,96850.91
2023-02-22T00:18:37.904Z,96857.91
2023-02-22T00:23:43.371Z,96857.81
2023-02-22T00:28:47.065Z,96860.34
2023-02-22T00:33:50.417Z,96858.38
2023-02-22T00:38:52.352Z,96871.03
2023-02-22T00:43:54.301Z,96868.31
2023-02-22T00:48:57.729Z,96868.66
2023-02-22T00:53:59.779Z,96870.19
2023-02-22T00:59:01.915Z,96865.53
2023-02-22T01:04:06.133Z,96868.09
2023-02-22T01:09:08.152Z,96868.06
2023-02-22T01:14:11.626Z,96870.41
2023-02-22T01:19:14.923Z,96870.53
2023-02-22T01:24:18.076Z,96866.28
2023-02-22T01:29:21.146Z,96865.69
2023-02-22T01:34:25.622Z,96866.81
2023-02-22T01:39:27.915Z,96864.75
2023-02-22T01:44:33.008Z,96861.44
2023-02-22T01:49:42.215Z,96860.03
2023-02-22T01:54:49.280Z,96853.84
2023-02-22T01:59:55.096Z,96858.75
2023-02-22T02:04:59.320Z,96852.59
2023-02-22T02:10:03.479Z,96852.41
2023-02-22T02:15:24.003Z,96852.88
2023-02-22T02:20:31.562Z,96858.41
2023-02-22T02:26:08.886Z,96858.31
2023-02-22T02:31:46.557Z,96854.75
2023-02-22T02:36:58.910Z,96846.50
2023-02-22T02:42:07.051Z,96846.78
2023-02-22T02:47:14.327Z,96848.13
2023-02-22T02:52:21.604Z,96851.41
2023-02-22T02:57:24.626Z,96840.25
2023-02-22T03:02:43.468Z,96845.53
2023-02-22T03:07:55.871Z,96845.69
2023-02-22T03:13:07.634Z,96848.66
2023-02-22T03:18:17.770Z,96862.38
2023-02-22T03:23:25.292Z,96866.22
2023-02-22T03:28:29.866Z,96859.53
2023-02-22T03:33:37.401Z,96869.53
2023-02-22T03:38:44.206Z,96860.34
2023-02-22T03:43:50.413Z,96865.16
2023-02-22T03:48:59.972Z,96855.34
2023-02-22T03:54:03.826Z,96856.94
2023-02-22T03:59:07.816Z,96860.38
2023-02-22T04:04:09.782Z,96870.59
2023-02-22T04:09:13.108Z,96869.84
2023-02-22T04:14:15.533Z,96870.56
2023-02-22T04:19:17.522Z,96877.66
2023-02-22T04:24:20.816Z,96879.88
2023-02-22T04:29:22.822Z,96876.25
2023-02-22T04:34:24.828Z,96869.34
2023-02-22T04:39:28.221Z,96868.84
2023-02-22T04:44:30.200Z,96869.84
2023-02-22T04:49:32.198Z,96875.34
2023-02-22T04:54:35.496Z,96876.63
2023-02-22T04:59:37.510Z,96878.91
2023-02-22T05:04:39.756Z,96876.25
2023-02-22T05:09:43.529Z,96874.91
2023-02-22T05:14:45.508Z,96875.56
2023-02-22T05:19:48.501Z,96870.28
2023-02-22T05:24:52.390Z,96873.78
2023-02-22T05:29:54.341Z,96881.63
2023-02-22T05:34:56.303Z,96893.59
2023-02-22T05:39:59.718Z,96884.13
2023-02-22T05:45:01.812Z,96889.16
2023-02-22T05:50:03.951Z,96893.09
2023-02-22T05:55:08.450Z,96897.53
2023-02-22T06:00:15.798Z,96894.22
2023-02-22T06:05:18.153Z,96896.06
2023-02-22T06:10:21.823Z,96902.31
2023-02-22T06:15:25.441Z,96913.50
2023-02-22T06:20:29.541Z,96919.22
2023-02-22T06:25:32.903Z,96930.81
2023-02-22T06:30:35.138Z,96927.94
2023-02-22T06:35:37.442Z,96933.81
2023-02-22T06:40:40.730Z,96938.09
2023-02-22T06:45:42.973Z,96942.25
2023-02-22T06:50:45.009Z,96942.88
2023-02-22T06:55:48.372Z,96946.53
2023-02-22T07:00:50.482Z,96954.56
2023-02-22T07:05:52.513Z,96951.59
2023-02-22T07:10:55.960Z,96958.75
2023-02-22T07:15:58.014Z,96966.44
2023-02-22T07:21:00.038Z,96965.69
2023-02-22T07:26:05.445Z,96960.41
2023-02-22T07:31:07.392Z,96966.88
2023-02-22T07:36:09.587Z,96961.72
2023-02-22T07:41:13.249Z,96959.13
2023-02-22T07:46:15.352Z,96950.97
2023-02-22T07:51:20.529Z,96969.78
2023-02-22T07:56:23.908Z,96962.84
2023-02-22T08:01:26.010Z,96963.09
2023-02-22T08:06:28.263Z,96959.16
2023-02-22T08:11:31.662Z,96958.94
2023-02-22T08:16:33.557Z,96960.09
2023-02-22T08:21:35.544Z,96966.50
2023-02-22T08:26:44.614Z,96963.41
2023-02-22T08:31:50.956Z,96958.69
2023-02-22T08:36:53.240Z,96959.06
2023-02-22T08:41:56.522Z,96957.28
2023-02-22T08:46:58.497Z,96961.09
2023-02-22T08:52:00.485Z,96962.50
2023-02-22T08:57:03.929Z,96955.09
2023-02-22T09:02:10.503Z,96952.38
2023-02-22T09:07:12.668Z,96960.31
2023-02-22T09:12:15.961Z,96965.59
2023-02-22T09:17:17.833Z,96961.91
2023-02-22T09:22:19.844Z,96962.00
2023-02-22T09:27:23.244Z,96966.91
2023-02-22T09:32:28.023Z,96967.16
2023-02-22T09:37:30.116Z,96970.28
2023-02-22T09:42:39.931Z,96968.13
2023-02-22T09:47:46.572Z,96968.44
2023-02-22T09:52:55.754Z,96974.47
2023-02-22T09:58:02.623Z,96962.09
2023-02-22T10:03:18.969Z,96973.00
2023-02-22T10:08:25.434Z,96967.38
2023-02-22T10:13:39.154Z,96963.75
2023-02-22T10:19:08.449Z,96957.13
2023-02-22T10:24:23.561Z,96950.56
2023-02-22T10:29:32.681Z,96948.31
2023-02-22T10:34:41.297Z,96951.59
2023-02-22T10:39:44.464Z,96953.91
2023-02-22T10:44:47.830Z,96947.44
2023-02-22T10:49:51.384Z,96937.28
2023-02-22T10:55:01.031Z,96944.28
2023-02-22T11:00:19.685Z,96924.88
2023-02-22T11:05:31.078Z,96935.22
2023-02-22T11:10:38.636Z,96932.47
2023-02-22T11:15:42.263Z,96932.28
2023-02-22T11:20:44.247Z,96935.47
2023-02-22T11:26:01.678Z,96936.13
2023-02-22T11:31:15.847Z,96927.09
2023-02-22T11:36:32.880Z,96932.28
2023-02-22T11:41:34.969Z,96922.59
2023-02-22T11:46:41.806Z,96926.50
2023-02-22T11:51:53.564Z,96928.97
2023-02-22T11:57:08.430Z,96928.41
2023-02-22T12:02:30.496Z,96926.25
2023-02-22T12:07:48.511Z,96919.69
2023-02-22T12:13:06.719Z,96926.28
2023-02-22T12:18:22.104Z,96926.41
2023-02-22T12:23:31.820Z,96924.47
2023-02-22T12:28:40.379Z,96921.41
2023-02-22T12:33:54.081Z,96914.13
2023-02-22T12:39:07.273Z,96910.00
2023-02-22T12:44:17.340Z,96908.72
2023-02-22T12:49:28.370Z,96907.09
2023-02-22T12:54:42.984Z,96894.22
2023-02-22T12:59:49.027Z,96894.50
2023-02-22T13:04:52.786Z,96889.63
2023-02-22T13:10:23.607Z,96895.59
2023-02-22T13:15:32.770Z,96898.47
2023-02-22T13:20:41.353Z,96897.34
2023-02-22T13:25:48.227Z,96900.09
2023-02-22T13:31:05.350Z,96896.53
2023-02-22T13:36:26.039Z,96896.91
2023-02-22T13:41:45.715Z,96906.66
2023-02-22T13:47:15.961Z,96900.25
2023-02-22T13:52:23.456Z,96903.59
2023-02-22T13:57:29.365Z,96897.66
2023-02-22T14:02:36.708Z,96907.44
2023-02-22T14:07:57.864Z,96905.66
2023-02-22T14:13:04.834Z,96893.25
2023-02-22T14:18:16.973Z,96895.56
2023-02-22T14:23:33.884Z,96903.16
2023-02-22T14:28:40.604Z,96893.22
2023-02-22T14:33:55.697Z,96885.66
2023-02-22T14:39:06.777Z,96889.66
2023-02-22T14:44:12.860Z,96890.44
2023-02-22T14:49:19.498Z,96884.41
2023-02-22T14:54:29.062Z,96884.88
2023-02-22T14:59:32.634Z,96898.09
2023-02-22T15:04:34.794Z,96889.66
2023-02-22T15:09:38.204Z,96891.03
2023-02-22T15:14:44.561Z,96893.69
2023-02-22T15:19:48.788Z,96889.66
2023-02-22T15:24:59.318Z,96894.53
2023-02-22T15:30:05.071Z,96883.06
2023-02-22T15:35:16.592Z,96887.47
2023-02-22T15:40:21.802Z,96883.91
2023-02-22T15:45:28.260Z,96887.38
2023-02-22T15:50:33.303Z,96888.84
2023-02-22T15:55:39.754Z,96887.25
2023-02-22T16:00:44.087Z,96883.81
2023-02-22T16:05:49.783Z,96886.94
2023-02-22T16:11:00.494Z,96891.78
2023-02-22T16:16:04.915Z,96886.50
2023-02-22T16:21:12.842Z,96895.78
2023-02-22T16:26:28.392Z,96893.72
2023-02-22T16:31:33.952Z,96901.38
2023-02-22T16:36:38.860Z,96902.16
2023-02-22T16:41:42.694Z,96908.19
2023-02-22T16:46:44.928Z,96908.44
2023-02-22T16:51:53.340Z,96908.31
2023-02-22T16:57:00.296Z,96910.06
2023-02-22T17:02:07.403Z,96905.06
2023-02-22T17:07:10.000Z,96913.47
2023-02-22T17:12:13.761Z,96908.34
2023-02-22T17:17:16.111Z,96903.16
2023-02-22T17:22:20.800Z,96900.00
2023-02-22T17:27:24.155Z,96906.00
2023-02-22T17:32:26.269Z,96896.78
2023-02-22T17:37:28.281Z,96902.13
2023-02-22T17:42:31.577Z,96894.00
2023-02-22T17:47:33.568Z,96887.28
2023-02-22T17:52:35.650Z,96891.28
2023-02-22T17:57:44.111Z,96887.31
2023-02-22T18:02:46.133Z,96888.47
2023-02-22T18:07:48.188Z,96890.59
2023-02-22T18:12:53.337Z,96897.25
2023-02-22T18:17:56.193Z,96894.63
2023-02-22T18:22:59.374Z,96897.19
2023-02-22T18:28:03.642Z,96896.34
2023-02-22T18:33:06.840Z,96897.28
2023-02-22T18:38:10.490Z,96897.28
2023-02-22T18:43:14.840Z,96901.38
2023-02-22T18:48:16.834Z,96891.72
2023-02-22T18:53:18.861Z,96896.00
2023-02-22T18:58:22.285Z,96894.03
2023-02-22T19:03:24.334Z,96890.19
2023-02-22T19:08:26.649Z,96895.06
2023-02-22T19:13:30.754Z,96896.59
2023-02-22T19:18:33.073Z,96899.41
2023-02-22T19:23:35.996Z,96900.25
2023-02-22T19:28:39.741Z,96903.00
2023-02-22T19:33:42.484Z,96901.81
2023-02-22T19:38:45.025Z,96910.78
2023-02-22T19:43:49.986Z,96898.91
2023-02-22T19:48:55.288Z,96914.44
2023-02-22T19:53:59.096Z,96907.19
2023-02-22T19:59:16.668Z,96906.41
2023-02-22T20:04:21.261Z,96901.44
2023-02-22T20:09:29.722Z,96906.59
2023-02-22T20:14:34.149Z,96908.78
2023-02-22T20:19:37.597Z,96912.97
2023-02-22T20:24:40.693Z,96918.72
2023-02-22T20:29:44.028Z,96906.72
2023-02-22T20:34:46.671Z,96903.84
2023-02-22T20:39:50.324Z,96894.84
2023-02-22T20:44:54.476Z,96898.81
2023-02-22T20:49:56.497Z,96904.63
2023-02-22T20:54:58.475Z,96901.31
2023-02-22T21:00:01.872Z,96895.31
2023-02-22T21:05:04.692Z,96893.44
2023-02-22T21:10:07.143Z,96896.72
2023-02-22T21:15:11.620Z,96901.63
2023-02-22T21:20:14.212Z,96900.28
2023-02-22T21:25:16.605Z,96899.59
2023-02-22T21:30:19.962Z,96900.69
2023-02-22T21:35:22.605Z,96899.09
2023-02-22T21:40:26.253Z,96892.72
2023-02-22T21:45:29.600Z,96884.53
2023-02-22T21:50:32.134Z,96883.97
2023-02-22T21:55:34.538Z,96869.59
2023-02-22T22:00:42.567Z,96876.59
2023-02-22T22:05:46.088Z,96873.09
2023-02-22T22:10:51.461Z,96871.16
2023-02-22T22:15:54.943Z,96868.88
2023-02-22T22:20:56.964Z,96862.56
2023-02-22T22:26:02.085Z,96861.81
2023-02-22T22:31:06.077Z,96868.97
2023-02-22T22:36:09.317Z,96864.47
2023-02-22T22:41:13.236Z,96864.22
2023-02-22T22:46:17.931Z,96863.06
2023-02-22T22:51:21.659Z,96858.41
2023-02-22T22:56:26.735Z,96862.38
2023-02-22T23:01:34.069Z,96861.25
2023-02-22T23:06:39.900Z,96862.91
2023-02-22T23:11:44.498Z,96869.09
2023-02-22T23:16:48.602Z,96866.63
2023-02-22T23:21:50.595Z,96860.47
2023-02-22T23:26:53.313Z,96855.16
2023-02-22T23:31:56.770Z,96860.59
2023-02-22T23:36:58.820Z,96854.88
2023-02-22T23:42:00.764Z,96854.16
2023-02-22T23:47:04.324Z,96863.88
2023-02-22T23:52:08.165Z,96857.44
2023-02-22T23:57:10.286Z,96855.75
